aviador You're here:

KVSF Decoded Metar

SPRINGFIELD in VT, USA
Report Time2018-01-18 12:54:00
UTC Time2018-01-18 13:59:17
Flight Rules mvfr MVFR
WindVRB at 04 kt
Visibility9999 m
Phenomena:N/A
Clouds:Overcast 021 Hf
Expected CloudBase > 400 ft AGL from Temp-Dew spread
Ceiling2,100 ft
Temp-14°C (ISA -28)
Dew Point-15°C (92% RH)
AAT-18.8°C
QNH1015 hPa
Density Alt-2,979 ft
Elevation574 ft
Report Wrong Elevation
Raw Report
KVSF 181254Z AUTO VRB04KT 8SM OVC021 M14/M15 A2998 RMK AO2
SNB12E29 SLP164 P0000 T11391150=

Extra information for KVSF:More info

Metar Taf Metar & Taf Last 4 Metars F.Rules Stats Wind Profile Meteogram Temp Stats Airport Information Weather charts Add Link Nearby VenuesMetar ALERT Operation Metar Decoded Social comments

AIRNAV info for KVSF